createdAt,value
2022-11-03T00:01:52.448Z,9.58
2022-11-03T00:04:21.145Z,9.54
2022-11-03T00:06:53.150Z,9.48
2022-11-03T00:09:21.335Z,9.41
2022-11-03T00:11:52.994Z,9.38
2022-11-03T00:14:19.956Z,9.39
2022-11-03T00:16:47.552Z,9.39
2022-11-03T00:19:16.495Z,9.38
2022-11-03T00:21:44.137Z,9.37
2022-11-03T00:24:11.483Z,9.39
2022-11-03T00:26:38.684Z,9.43
2022-11-03T00:29:11.412Z,9.47
2022-11-03T00:31:40.673Z,9.47
2022-11-03T00:34:08.427Z,9.47
2022-11-03T00:36:37.675Z,9.45
2022-11-03T00:39:05.525Z,9.42
2022-11-03T00:41:32.583Z,9.41
2022-11-03T00:43:59.457Z,9.42
2022-11-03T00:46:26.849Z,9.42
2022-11-03T00:48:53.690Z,9.42
2022-11-03T00:51:23.660Z,9.42
2022-11-03T00:53:55.996Z,9.38
2022-11-03T00:56:43.857Z,9.32
2022-11-03T00:59:10.587Z,9.28
2022-11-03T01:01:45.329Z,9.20
2022-11-03T01:04:31.888Z,9.19
2022-11-03T01:07:00.109Z,9.12
2022-11-03T01:09:39.164Z,9.05
2022-11-03T01:12:09.503Z,8.99
2022-11-03T01:14:44.906Z,8.93
2022-11-03T01:17:26.472Z,8.86
2022-11-03T01:19:54.171Z,8.77
2022-11-03T01:22:23.063Z,8.72
2022-11-03T01:24:51.374Z,8.69
2022-11-03T01:27:19.986Z,8.65
2022-11-03T01:29:46.684Z,8.59
2022-11-03T01:32:14.393Z,8.51
2022-11-03T01:34:41.070Z,8.45
2022-11-03T01:37:07.969Z,8.37
2022-11-03T01:39:34.856Z,8.32
2022-11-03T01:42:01.676Z,8.27
2022-11-03T01:44:34.976Z,8.23
2022-11-03T01:47:08.632Z,8.19
2022-11-03T01:49:44.160Z,8.16
2022-11-03T01:52:25.365Z,8.14
2022-11-03T01:54:58.964Z,8.14
2022-11-03T01:57:35.847Z,8.13
2022-11-03T02:00:04.414Z,8.12
2022-11-03T02:02:40.603Z,8.13
2022-11-03T02:05:10.224Z,8.19
2022-11-03T02:07:43.841Z,8.27
2022-11-03T02:10:10.822Z,8.35
2022-11-03T02:12:38.825Z,8.44
2022-11-03T02:15:09.332Z,8.52
2022-11-03T02:17:37.621Z,8.57
2022-11-03T02:20:13.249Z,8.62
2022-11-03T02:22:54.962Z,8.69
2022-11-03T02:25:36.822Z,8.76
2022-11-03T02:28:05.631Z,8.81
2022-11-03T02:30:41.415Z,8.85
2022-11-03T02:33:29.824Z,8.89
2022-11-03T02:36:04.200Z,8.93
2022-11-03T02:38:34.423Z,8.96
2022-11-03T02:41:06.289Z,8.99
2022-11-03T02:43:34.130Z,9.02
2022-11-03T02:46:04.648Z,9.04
2022-11-03T02:48:31.923Z,9.06
2022-11-03T02:50:58.665Z,9.09
2022-11-03T02:53:28.640Z,9.12
2022-11-03T02:56:04.535Z,9.15
2022-11-03T02:58:48.181Z,9.15
2022-11-03T03:01:46.908Z,9.16
2022-11-03T03:04:21.956Z,9.15
2022-11-03T03:06:54.900Z,9.12
2022-11-03T03:09:27.240Z,9.07
2022-11-03T03:11:56.969Z,9.01
2022-11-03T03:14:36.124Z,8.98
2022-11-03T03:17:12.441Z,8.95
2022-11-03T03:20:04.701Z,8.93
2022-11-03T03:22:37.287Z,8.93
2022-11-03T03:25:52.427Z,8.95
2022-11-03T03:28:25.133Z,8.97
2022-11-03T03:30:56.051Z,8.98
2022-11-03T03:33:25.104Z,9.00
2022-11-03T03:35:53.724Z,9.03
2022-11-03T03:38:32.296Z,9.04
2022-11-03T03:41:03.444Z,9.07
2022-11-03T03:43:33.972Z,9.09
2022-11-03T03:46:06.359Z,9.10
2022-11-03T03:48:33.605Z,9.10
2022-11-03T03:51:02.415Z,9.11
2022-11-03T03:53:29.958Z,9.11
2022-11-03T03:55:57.758Z,9.09
2022-11-03T03:58:24.436Z,9.09
2022-11-03T04:00:51.194Z,9.10
2022-11-03T04:03:21.216Z,9.11
2022-11-03T04:05:48.644Z,9.13
2022-11-03T04:08:16.828Z,9.13
2022-11-03T04:11:23.062Z,9.12
2022-11-03T04:14:08.631Z,9.09
2022-11-03T04:16:53.920Z,9.08
2022-11-03T04:19:39.507Z,9.07
2022-11-03T04:22:16.822Z,9.06
2022-11-03T04:24:48.342Z,9.06
2022-11-03T04:27:18.059Z,9.06
2022-11-03T04:29:45.003Z,9.01
2022-11-03T04:32:17.298Z,8.97
2022-11-03T04:34:48.067Z,8.92
2022-11-03T04:37:15.402Z,8.85
2022-11-03T04:39:42.143Z,8.79
2022-11-03T04:42:17.306Z,8.77
2022-11-03T04:44:45.231Z,8.77
2022-11-03T04:47:13.377Z,8.79
2022-11-03T04:49:40.709Z,8.81
2022-11-03T04:52:21.913Z,8.81
2022-11-03T04:54:52.602Z,8.79
2022-11-03T04:57:19.362Z,8.78
2022-11-03T04:59:52.433Z,8.77
2022-11-03T05:02:21.373Z,8.74
2022-11-03T05:04:48.322Z,8.71
2022-11-03T05:07:28.407Z,8.67
2022-11-03T05:09:56.057Z,8.60
2022-11-03T05:12:22.963Z,8.54
2022-11-03T05:14:54.097Z,8.50
2022-11-03T05:17:25.665Z,8.46
2022-11-03T05:20:01.978Z,8.41
2022-11-03T05:22:35.489Z,8.36
2022-11-03T05:25:27.420Z,8.31
2022-11-03T05:27:54.092Z,8.27
2022-11-03T05:30:20.991Z,8.26
2022-11-03T05:32:47.991Z,8.26
2022-11-03T05:35:22.798Z,8.29
2022-11-03T05:37:50.697Z,8.33
2022-11-03T05:40:25.386Z,8.37
2022-11-03T05:43:14.035Z,8.40
2022-11-03T05:45:41.578Z,8.44
2022-11-03T05:48:17.294Z,8.47
2022-11-03T05:50:44.913Z,8.51
2022-11-03T05:53:29.266Z,8.56
2022-11-03T05:55:58.004Z,8.62
2022-11-03T05:58:39.206Z,8.67
2022-11-03T06:01:24.932Z,8.75
2022-11-03T06:03:51.933Z,8.87
2022-11-03T06:06:38.955Z,8.98
2022-11-03T06:09:16.993Z,9.08
2022-11-03T06:11:44.013Z,9.19
2022-11-03T06:14:24.602Z,9.29
2022-11-03T06:16:54.290Z,9.40
2022-11-03T06:19:28.094Z,9.49
2022-11-03T06:21:58.552Z,9.62
2022-11-03T06:24:31.261Z,9.75
2022-11-03T06:26:58.237Z,9.87
2022-11-03T06:29:25.734Z,9.96
2022-11-03T06:31:57.391Z,10.08
2022-11-03T06:34:30.040Z,10.20
2022-11-03T06:37:01.611Z,10.33
2022-11-03T06:39:28.349Z,10.45
2022-11-03T06:41:55.038Z,10.54
2022-11-03T06:44:24.527Z,10.63
2022-11-03T06:46:56.637Z,10.73
2022-11-03T06:49:34.199Z,10.82
2022-11-03T06:52:24.331Z,10.90
2022-11-03T06:55:15.731Z,10.98
2022-11-03T06:57:47.289Z,11.04
2022-11-03T07:00:36.044Z,11.12
2022-11-03T07:03:20.682Z,11.22
2022-11-03T07:05:47.544Z,11.32
2022-11-03T07:08:35.308Z,11.43
2022-11-03T07:11:23.906Z,11.56
2022-11-03T07:13:58.012Z,11.70
2022-11-03T07:16:34.959Z,11.80
2022-11-03T07:19:12.496Z,11.95
2022-11-03T07:21:47.674Z,12.12
2022-11-03T07:24:31.245Z,12.29
2022-11-03T07:27:20.146Z,12.46
2022-11-03T07:29:48.944Z,12.64
2022-11-03T07:32:19.248Z,12.79
2022-11-03T07:34:47.284Z,12.89
2022-11-03T07:37:18.446Z,12.99
2022-11-03T07:39:46.451Z,13.16
2022-11-03T07:42:21.652Z,13.40
2022-11-03T07:44:49.750Z,13.70
2022-11-03T07:47:25.158Z,13.94
2022-11-03T07:49:55.588Z,14.19
2022-11-03T07:52:24.737Z,14.33
2022-11-03T07:54:56.329Z,14.24
2022-11-03T07:57:23.026Z,14.10
2022-11-03T07:59:53.200Z,13.90
2022-11-03T08:02:30.914Z,13.83
2022-11-03T08:04:58.971Z,13.80
2022-11-03T08:07:27.435Z,13.73
2022-11-03T08:09:54.714Z,13.93
2022-11-03T08:12:21.805Z,14.46
2022-11-03T08:14:48.605Z,15.02
2022-11-03T08:17:18.734Z,15.62
2022-11-03T08:19:45.717Z,16.27
2022-11-03T08:22:12.554Z,16.95
2022-11-03T08:24:39.335Z,17.52
2022-11-03T08:27:06.011Z,17.95
2022-11-03T08:29:32.809Z,18.27
2022-11-03T08:31:59.609Z,18.60
2022-11-03T08:34:26.283Z,18.99
2022-11-03T08:36:52.940Z,19.32
2022-11-03T08:39:19.641Z,19.69
2022-11-03T08:41:46.355Z,19.98
2022-11-03T08:44:13.024Z,20.16
2022-11-03T08:46:39.717Z,20.30
2022-11-03T08:49:06.572Z,20.50
2022-11-03T08:51:33.364Z,20.70
2022-11-03T08:54:00.118Z,20.90
2022-11-03T08:56:26.791Z,21.15
2022-11-03T08:58:53.459Z,21.14
2022-11-03T09:01:20.208Z,21.17
2022-11-03T09:03:47.002Z,21.22
2022-11-03T09:06:13.732Z,21.45
2022-11-03T09:11:27.066Z,21.50
2022-11-03T09:13:53.824Z,21.60
2022-11-03T09:16:20.477Z,21.63
2022-11-03T09:18:47.347Z,21.38
2022-11-03T09:21:14.257Z,20.98
2022-11-03T09:23:41.120Z,20.53
2022-11-03T09:26:07.860Z,20.87
2022-11-03T09:28:34.621Z,21.22
2022-11-03T09:31:01.360Z,21.38
2022-11-03T09:33:28.094Z,21.61
2022-11-03T09:35:54.853Z,21.77
2022-11-03T09:38:21.503Z,21.92
2022-11-03T09:43:20.192Z,21.98
2022-11-03T09:45:47.336Z,22.03
2022-11-03T09:48:14.737Z,22.26
2022-11-03T09:50:42.385Z,22.31
2022-11-03T09:53:11.649Z,22.39
2022-11-03T09:55:39.098Z,22.56
2022-11-03T09:58:14.628Z,22.49
2022-11-03T10:00:41.649Z,22.32
2022-11-03T10:03:13.701Z,22.28
2022-11-03T10:05:43.277Z,22.05
2022-11-03T10:08:29.184Z,21.71
2022-11-03T10:10:57.325Z,21.89
2022-11-03T10:13:38.407Z,22.24
2022-11-03T10:16:11.291Z,22.46
2022-11-03T10:18:38.137Z,22.63
2022-11-03T10:21:12.505Z,22.66
2022-11-03T10:23:39.455Z,22.82
2022-11-03T10:26:11.793Z,23.10
2022-11-03T10:28:38.986Z,23.36
2022-11-03T10:31:18.568Z,23.64
2022-11-03T10:33:54.181Z,23.88
2022-11-03T10:36:25.658Z,23.45
2022-11-03T10:38:53.238Z,22.89
2022-11-03T10:41:23.033Z,22.28
2022-11-03T10:44:00.384Z,22.42
2022-11-03T10:49:18.609Z,23.72
2022-11-03T10:51:49.053Z,24.26
2022-11-03T10:54:18.400Z,24.58
2022-11-03T10:56:46.382Z,24.74
2022-11-03T10:59:22.649Z,24.58
2022-11-03T11:01:49.529Z,23.85
2022-11-03T11:04:18.496Z,23.53
2022-11-03T11:06:46.121Z,23.69
2022-11-03T11:09:20.028Z,23.99
2022-11-03T11:12:05.927Z,24.34
2022-11-03T11:14:38.815Z,24.71
2022-11-03T11:17:05.786Z,24.98
2022-11-03T11:20:11.063Z,25.21
2022-11-03T11:22:37.858Z,25.30
2022-11-03T11:25:04.750Z,25.17
2022-11-03T11:27:31.423Z,24.44
2022-11-03T11:29:59.923Z,23.67
2022-11-03T11:32:38.886Z,22.42
2022-11-03T11:35:11.407Z,21.50
2022-11-03T11:37:38.174Z,21.90
2022-11-03T11:40:12.851Z,22.20
2022-11-03T11:43:12.617Z,22.12
2022-11-03T11:46:16.960Z,21.77
2022-11-03T11:48:43.703Z,22.09
2022-11-03T11:51:11.653Z,22.48
2022-11-03T11:53:40.673Z,22.77
2022-11-03T11:56:13.231Z,23.01
2022-11-03T11:58:48.018Z,23.19
2022-11-03T12:01:34.415Z,23.32
2022-11-03T12:06:46.384Z,24.00
2022-11-03T12:09:13.213Z,24.02
2022-11-03T12:11:53.907Z,23.91
2022-11-03T12:14:28.291Z,23.89
2022-11-03T12:16:56.468Z,24.20
2022-11-03T12:19:44.305Z,24.16
2022-11-03T12:22:37.467Z,23.82
2022-11-03T12:25:10.203Z,23.62
2022-11-03T12:27:36.973Z,23.61
2022-11-03T12:30:08.224Z,23.58
2022-11-03T12:32:35.873Z,23.52
2022-11-03T12:35:04.692Z,23.46
2022-11-03T12:37:31.699Z,23.33
2022-11-03T12:39:58.906Z,23.35
2022-11-03T12:42:25.940Z,23.37
2022-11-03T12:44:52.943Z,23.13
2022-11-03T12:47:20.565Z,23.12
2022-11-03T12:49:47.523Z,23.04
2022-11-03T12:52:14.729Z,22.79
2022-11-03T12:54:41.818Z,22.55
2022-11-03T12:57:08.728Z,22.20
2022-11-03T12:59:35.520Z,22.00
2022-11-03T13:02:02.426Z,21.83
2022-11-03T13:04:29.212Z,21.70
2022-11-03T13:06:56.112Z,21.44
2022-11-03T13:09:22.882Z,20.95
2022-11-03T13:12:08.267Z,20.53
2022-11-03T13:14:34.966Z,20.38
2022-11-03T13:17:03.236Z,20.20
2022-11-03T13:19:30.130Z,19.91
2022-11-03T13:21:56.990Z,19.73
2022-11-03T13:24:23.772Z,19.53
2022-11-03T13:26:50.461Z,19.36
2022-11-03T13:29:17.186Z,19.28
2022-11-03T13:31:43.863Z,19.30
2022-11-03T13:34:10.524Z,19.36
2022-11-03T13:36:37.251Z,19.53
2022-11-03T13:39:04.149Z,19.63
2022-11-03T13:41:30.874Z,19.65
2022-11-03T13:43:57.606Z,19.54
2022-11-03T13:46:24.409Z,19.39
2022-11-03T13:51:37.770Z,19.33
2022-11-03T13:59:38.285Z,18.74
2022-11-03T14:04:52.775Z,18.22
2022-11-03T14:07:19.506Z,18.07
2022-11-03T14:09:46.488Z,17.93
2022-11-03T14:12:31.701Z,17.75
2022-11-03T14:15:04.431Z,17.68
2022-11-03T14:17:31.299Z,17.59
2022-11-03T14:20:03.843Z,17.31
2022-11-03T14:22:32.296Z,16.89
2022-11-03T14:25:00.457Z,16.44
2022-11-03T14:27:27.501Z,16.20
2022-11-03T14:29:54.479Z,15.98
2022-11-03T14:32:21.184Z,15.69
2022-11-03T14:34:48.031Z,15.41
2022-11-03T14:37:15.460Z,15.18
2022-11-03T14:39:42.431Z,14.98
2022-11-03T14:42:16.525Z,14.69
2022-11-03T14:44:45.748Z,14.39
2022-11-03T14:47:18.066Z,14.09
2022-11-03T14:49:45.769Z,13.80
2022-11-03T14:52:13.301Z,13.54
2022-11-03T14:54:40.000Z,13.32
2022-11-03T14:57:09.109Z,13.14
2022-11-03T14:59:36.842Z,12.94
2022-11-03T15:02:05.329Z,12.78
2022-11-03T15:04:32.268Z,12.58
2022-11-03T15:06:59.052Z,12.49
2022-11-03T15:09:25.791Z,12.37
2022-11-03T15:11:52.594Z,12.24
2022-11-03T15:14:19.358Z,12.10
2022-11-03T15:16:46.263Z,11.98
2022-11-03T15:19:13.201Z,11.86
2022-11-03T15:21:39.907Z,11.76
2022-11-03T15:26:53.441Z,11.54
2022-11-03T15:29:20.159Z,11.45
2022-11-03T15:31:48.420Z,11.35
2022-11-03T15:34:15.957Z,11.26
2022-11-03T15:36:42.674Z,11.18
2022-11-03T15:39:09.374Z,11.11
2022-11-03T15:41:36.156Z,11.01
2022-11-03T15:44:02.988Z,10.89
2022-11-03T15:46:29.645Z,10.76
2022-11-03T15:48:56.958Z,10.64
2022-11-03T15:51:23.741Z,10.51
2022-11-03T15:53:56.688Z,10.41
2022-11-03T15:56:26.469Z,10.33
2022-11-03T15:58:53.135Z,10.27
2022-11-03T16:01:19.928Z,10.23
2022-11-03T16:03:48.338Z,10.17
2022-11-03T16:06:15.617Z,10.06
2022-11-03T16:08:42.440Z,9.96
2022-11-03T16:11:09.371Z,9.85
2022-11-03T16:13:36.105Z,9.75
2022-11-03T16:16:03.198Z,9.69
2022-11-03T16:18:29.931Z,9.63
2022-11-03T16:20:56.634Z,9.61
2022-11-03T16:23:24.215Z,9.61
2022-11-03T16:25:50.966Z,9.61
2022-11-03T16:28:17.655Z,9.63
2022-11-03T16:30:46.377Z,9.64
2022-11-03T16:33:16.565Z,9.65
2022-11-03T16:35:43.345Z,9.63
2022-11-03T16:38:10.393Z,9.61
2022-11-03T16:40:37.419Z,9.55
2022-11-03T16:43:04.087Z,9.45
2022-11-03T16:45:36.381Z,9.40
2022-11-03T16:48:05.577Z,9.35
2022-11-03T16:50:32.927Z,9.29
2022-11-03T16:52:59.729Z,9.22
2022-11-03T16:55:26.550Z,9.15
2022-11-03T16:57:53.228Z,9.11
2022-11-03T17:00:21.013Z,9.03
2022-11-03T17:02:47.823Z,8.97
2022-11-03T17:05:16.903Z,8.91
2022-11-03T17:07:50.057Z,8.84
2022-11-03T17:10:20.138Z,8.74
2022-11-03T17:12:46.805Z,8.66
2022-11-03T17:15:13.513Z,8.60
2022-11-03T17:17:40.909Z,8.56
2022-11-03T17:20:10.080Z,8.54
2022-11-03T17:22:37.001Z,8.52
2022-11-03T17:25:08.913Z,8.54
2022-11-03T17:27:54.680Z,8.56
2022-11-03T17:30:24.143Z,8.53
2022-11-03T17:32:55.109Z,8.51
2022-11-03T17:35:38.943Z,8.50
2022-11-03T17:38:14.187Z,8.52
2022-11-03T17:40:43.380Z,8.54
2022-11-03T17:43:29.601Z,8.55
2022-11-03T17:45:56.341Z,8.53
2022-11-03T17:48:23.662Z,8.50
2022-11-03T17:50:53.134Z,8.44
2022-11-03T17:53:24.094Z,8.40
2022-11-03T17:56:23.390Z,8.37
2022-11-03T17:58:45.860Z,8.37
2022-11-03T18:01:20.534Z,8.37
2022-11-03T18:03:47.276Z,8.34
2022-11-03T18:06:18.335Z,8.34
2022-11-03T18:08:46.347Z,8.35
2022-11-03T18:11:35.320Z,8.37
2022-11-03T18:14:03.207Z,8.38
2022-11-03T18:16:30.958Z,8.40
2022-11-03T18:18:58.260Z,8.37
2022-11-03T18:21:26.088Z,8.39
2022-11-03T18:23:52.740Z,8.38
2022-11-03T18:26:22.525Z,8.30
2022-11-03T18:28:49.929Z,8.23
2022-11-03T18:31:33.989Z,8.18
2022-11-03T18:34:03.452Z,8.11
2022-11-03T18:36:33.166Z,8.07
2022-11-03T18:39:00.324Z,8.05
2022-11-03T18:41:36.203Z,8.04
2022-11-03T18:44:13.423Z,8.04
2022-11-03T18:46:40.285Z,8.01
2022-11-03T18:49:07.037Z,7.99
2022-11-03T18:51:33.978Z,8.01
2022-11-03T18:54:01.071Z,8.06
2022-11-03T18:56:28.126Z,8.11
2022-11-03T18:58:56.678Z,8.13
2022-11-03T19:01:27.354Z,8.11
2022-11-03T19:03:55.989Z,8.07
2022-11-03T19:06:23.867Z,8.05
2022-11-03T19:08:59.003Z,8.02
2022-11-03T19:11:26.546Z,8.00
2022-11-03T19:13:53.894Z,8.00
2022-11-03T19:16:23.404Z,7.99
2022-11-03T19:18:51.685Z,7.98
2022-11-03T19:21:23.515Z,7.99
2022-11-03T19:23:55.492Z,7.95
2022-11-03T19:26:34.063Z,7.91
2022-11-03T19:29:04.755Z,7.87
2022-11-03T19:31:36.229Z,7.86
2022-11-03T19:34:05.586Z,7.86
2022-11-03T19:36:32.714Z,7.87
2022-11-03T19:39:00.556Z,7.90
2022-11-03T19:41:45.968Z,7.91
2022-11-03T19:44:13.229Z,7.94
2022-11-03T19:46:41.540Z,7.94
2022-11-03T19:49:14.437Z,7.93
2022-11-03T19:51:41.516Z,7.96
2022-11-03T19:54:20.126Z,7.97
2022-11-03T19:56:47.543Z,7.97
2022-11-03T19:59:16.147Z,7.92
2022-11-03T20:01:44.863Z,7.86
2022-11-03T20:04:11.837Z,7.83
2022-11-03T20:06:40.447Z,7.82
2022-11-03T20:09:14.575Z,7.79
2022-11-03T20:11:41.471Z,7.74
2022-11-03T20:14:15.141Z,7.66
2022-11-03T20:16:41.855Z,7.58
2022-11-03T20:19:08.950Z,7.53
2022-11-03T20:21:35.813Z,7.48
2022-11-03T20:24:04.346Z,7.51
2022-11-03T20:26:31.196Z,7.52
2022-11-03T20:28:58.513Z,7.47
2022-11-03T20:31:25.187Z,7.46
2022-11-03T20:33:51.868Z,7.45
2022-11-03T20:36:19.886Z,7.43
2022-11-03T20:38:55.125Z,7.38
2022-11-03T20:41:21.835Z,7.35
2022-11-03T20:43:49.223Z,7.32
2022-11-03T20:46:36.956Z,7.28
2022-11-03T20:49:03.827Z,7.24
2022-11-03T20:51:33.597Z,7.18
2022-11-03T20:54:03.674Z,7.07
2022-11-03T20:56:30.355Z,6.99
2022-11-03T20:58:57.777Z,6.90
2022-11-03T21:01:32.402Z,6.81
2022-11-03T21:04:00.800Z,6.71
2022-11-03T21:06:30.744Z,6.66
2022-11-03T21:08:58.422Z,6.67
2022-11-03T21:11:29.079Z,6.67
2022-11-03T21:14:01.811Z,6.64
2022-11-03T21:16:48.303Z,6.60
2022-11-03T21:19:39.594Z,6.59
2022-11-03T21:22:51.472Z,6.59
2022-11-03T21:25:21.183Z,6.52
2022-11-03T21:27:49.120Z,6.46
2022-11-03T21:30:17.465Z,6.42
2022-11-03T21:32:44.843Z,6.40
2022-11-03T21:35:17.222Z,6.41
2022-11-03T21:37:44.681Z,6.43
2022-11-03T21:40:11.925Z,6.44
2022-11-03T21:42:57.468Z,6.47
2022-11-03T21:45:24.790Z,6.52
2022-11-03T21:48:13.899Z,6.60
2022-11-03T21:50:42.199Z,6.62
2022-11-03T21:53:10.797Z,6.62
2022-11-03T21:55:38.407Z,6.63
2022-11-03T21:58:05.530Z,6.64
2022-11-03T22:00:32.781Z,6.63
2022-11-03T22:03:00.371Z,6.62
2022-11-03T22:05:27.821Z,6.66
2022-11-03T22:07:54.645Z,6.69
2022-11-03T22:10:21.471Z,6.72
2022-11-03T22:12:48.219Z,6.76
2022-11-03T22:15:34.027Z,6.85
2022-11-03T22:18:05.870Z,6.96
2022-11-03T22:20:54.024Z,7.07
2022-11-03T22:23:39.437Z,7.14
2022-11-03T22:26:31.026Z,7.27
2022-11-03T22:29:18.926Z,7.32
2022-11-03T22:31:45.839Z,7.37
2022-11-03T22:34:31.549Z,7.40
2022-11-03T22:36:58.260Z,7.42
2022-11-03T22:39:43.432Z,7.40
2022-11-03T22:42:30.497Z,7.44
2022-11-03T22:45:15.975Z,7.44
2022-11-03T22:47:42.849Z,7.33
2022-11-03T22:50:09.708Z,7.08
2022-11-03T22:52:36.451Z,6.62
2022-11-03T22:55:03.463Z,6.11
2022-11-03T22:57:30.135Z,5.79
2022-11-03T22:59:56.894Z,5.62
2022-11-03T23:02:23.760Z,5.51
2022-11-03T23:04:50.896Z,5.46
2022-11-03T23:07:17.555Z,5.42
2022-11-03T23:09:44.986Z,5.40
2022-11-03T23:12:11.750Z,5.38
2022-11-03T23:14:57.582Z,5.36
2022-11-03T23:17:44.184Z,5.35
2022-11-03T23:20:29.775Z,5.36
2022-11-03T23:22:56.644Z,5.26
2022-11-03T23:25:23.371Z,5.20
2022-11-03T23:27:51.964Z,5.22
2022-11-03T23:30:18.746Z,5.25
2022-11-03T23:32:45.538Z,5.20
2022-11-03T23:35:14.029Z,5.16
2022-11-03T23:37:40.770Z,5.09
2022-11-03T23:40:08.030Z,5.03
2022-11-03T23:42:34.745Z,4.98
2022-11-03T23:45:20.251Z,4.95
2022-11-03T23:48:05.732Z,4.99
2022-11-03T23:50:32.737Z,5.09
2022-11-03T23:52:59.418Z,5.03
2022-11-03T23:55:46.068Z,4.93
2022-11-03T23:58:18.638Z,4.83
